Time;durP1;ratioP1;P1;durP2;ratioP2;P2;SDS_P1;SDS_P2;PMS_P1;PMS_P2;Temp;Humidity;BMP_temperature;BMP_pressure;BME280_temperature;BME280_humidity;BME280_pressure;Samples;Min_cycle;Max_cycle;Signal;HPM_P1;HPM_P2
2022/12/26 00:01:27;;;;;;;4.20;3.80;;;11.80;99.90;;;;;;5092472;28;20060;-44
2022/12/26 00:03:52;;;;;;;6.00;3.65;;;11.80;99.90;;;;;;5090085;28;20020;-39
2022/12/26 00:06:21;;;;;;;7.63;3.60;;;11.80;99.90;;;;;;5091980;28;20035;-46
2022/12/26 00:08:47;;;;;;;4.18;3.72;;;11.80;99.90;;;;;;5092819;28;20031;-47
2022/12/26 00:11:13;;;;;;;6.22;3.83;;;11.90;99.90;;;;;;5092716;28;20103;-48
2022/12/26 00:13:39;;;;;;;5.85;4.00;;;11.90;99.90;;;;;;5091998;28;20020;-44
2022/12/26 00:16:13;;;;;;;3.50;3.20;;;11.90;99.90;;;;;;5092772;28;20023;-45
2022/12/26 00:18:38;;;;;;;7.85;3.85;;;11.90;99.90;;;;;;5092084;28;20020;-44
2022/12/26 00:21:05;;;;;;;5.75;3.08;;;11.90;99.90;;;;;;5074096;28;20112;-42
2022/12/26 00:23:32;;;;;;;2.92;2.72;;;11.90;99.90;;;;;;5091272;28;20130;-49
2022/12/26 00:26:03;;;;;;;5.15;4.03;;;11.90;99.90;;;;;;5091988;28;20032;-44
2022/12/26 00:28:28;;;;;;;6.40;4.32;;;12.00;99.90;;;;;;5091979;28;20447;-43
2022/12/26 00:30:55;;;;;;;4.28;3.00;;;11.90;99.90;;;;;;5092061;28;20052;-43
2022/12/26 00:33:20;;;;;;;7.07;3.40;;;11.90;99.90;;;;;;5091849;28;20046;-43
2022/12/26 00:35:46;;;;;;;4.22;3.00;;;11.90;99.90;;;;;;5091771;28;20458;-44
2022/12/26 00:38:11;;;;;;;3.97;3.40;;;11.90;99.90;;;;;;5092259;28;20066;-45
2022/12/26 00:40:42;;;;;;;4.85;3.42;;;12.00;99.90;;;;;;5092008;28;20153;-43
2022/12/26 00:43:10;;;;;;;5.75;3.53;;;12.00;99.90;;;;;;5091545;28;20024;-45
2022/12/26 00:45:35;;;;;;;6.43;3.65;;;12.00;99.90;;;;;;5091842;28;20028;-44
2022/12/26 00:48:01;;;;;;;17.45;10.50;;;12.00;99.90;;;;;;5091810;28;20032;-44
2022/12/26 00:50:26;;;;;;;8.30;5.07;;;12.00;99.90;;;;;;5073505;28;20475;-44
2022/12/26 00:52:52;;;;;;;6.38;5.20;;;12.00;99.90;;;;;;5090973;28;20024;-45
2022/12/26 00:55:19;;;;;;;5.45;3.58;;;12.00;99.90;;;;;;5091756;28;20115;-42
2022/12/26 00:57:44;;;;;;;3.78;3.05;;;12.00;99.90;;;;;;5091670;28;20031;-44
2022/12/26 01:00:10;;;;;;;4.72;2.90;;;12.00;99.90;;;;;;5091589;28;20036;-44
2022/12/26 01:02:39;;;;;;;4.47;3.70;;;12.00;99.90;;;;;;5090255;28;20055;-46
2022/12/26 01:05:07;;;;;;;4.68;3.25;;;12.00;99.90;;;;;;5090390;28;20099;-47
2022/12/26 01:07:35;;;;;;;6.60;2.95;;;12.00;99.90;;;;;;5073357;28;20028;-45
2022/12/26 01:10:02;;;;;;;4.97;3.25;;;12.00;99.90;;;;;;5091601;28;20065;-45
2022/12/26 01:12:27;;;;;;;5.68;3.15;;;11.90;99.90;;;;;;5090783;28;20055;-49
2022/12/26 01:14:59;;;;;;;6.30;3.33;;;11.90;99.90;;;;;;5091763;28;20048;-43
2022/12/26 01:17:26;;;;;;;4.43;2.72;;;11.90;99.90;;;;;;5091633;28;20028;-45
2022/12/26 01:19:52;;;;;;;5.15;3.35;;;11.90;99.90;;;;;;5091220;28;20031;-48
2022/12/26 01:22:18;;;;;;;4.70;3.53;;;12.00;99.90;;;;;;5090771;28;20024;-47
2022/12/26 01:24:43;;;;;;;6.47;3.08;;;12.00;99.90;;;;;;5091629;28;20399;-45
2022/12/26 01:27:09;;;;;;;6.47;2.97;;;11.90;99.90;;;;;;5091307;28;20452;-44
2022/12/26 01:29:34;;;;;;;5.95;3.03;;;12.00;99.90;;;;;;5091433;28;20028;-44
2022/12/26 01:32:00;;;;;;;5.60;3.10;;;12.00;99.90;;;;;;5090756;28;20107;-49
2022/12/26 01:34:26;;;;;;;4.22;3.50;;;12.00;99.90;;;;;;5091428;28;20039;-45
2022/12/26 01:36:52;;;;;;;4.82;3.38;;;11.90;99.90;;;;;;5091382;28;20085;-43
2022/12/26 01:39:18;;;;;;;6.80;3.40;;;11.90;99.90;;;;;;5091388;28;20024;-45
2022/12/26 01:41:43;;;;;;;4.47;3.40;;;11.90;99.90;;;;;;5091523;28;20039;-44
2022/12/26 01:44:47;;;;;;;5.78;3.70;;;11.90;99.90;;;;;;5090784;28;20024;-46
2022/12/26 01:47:13;;;;;;;5.13;3.53;;;11.90;99.90;;;;;;5091206;28;20027;-46
2022/12/26 01:49:46;;;;;;;5.72;3.38;;;11.90;99.90;;;;;;5091171;28;20020;-48
2022/12/26 01:52:19;;;;;;;3.53;3.22;;;11.80;99.90;;;;;;5090569;28;20020;-48
2022/12/26 01:54:48;;;;;;;5.82;3.70;;;11.80;99.90;;;;;;5091385;28;20019;-44
2022/12/26 01:57:21;;;;;;;4.78;3.42;;;11.90;99.90;;;;;;5091198;28;20024;-45
2022/12/26 01:59:48;;;;;;;3.42;3.08;;;11.80;99.90;;;;;;5090974;28;20035;-45
2022/12/26 02:02:15;;;;;;;4.93;3.60;;;11.80;99.90;;;;;;5090153;28;20024;-47
2022/12/26 02:07:36;;;;;;;5.15;3.50;;;11.90;99.90;;;;;;5091013;28;20066;-43
2022/12/26 02:10:06;;;;;;;4.38;3.35;;;11.90;99.90;;;;;;5090797;28;20052;-49
2022/12/26 02:12:33;;;;;;;6.85;3.33;;;11.90;99.90;;;;;;5090864;28;20035;-46
2022/12/26 02:15:01;;;;;;;4.53;3.15;;;11.90;99.90;;;;;;5094708;28;20028;-47
2022/12/26 02:17:27;;;;;;;9.23;3.78;;;11.90;99.90;;;;;;5094298;28;20119;-45
2022/12/26 02:20:22;;;;;;;6.82;3.30;;;12.00;99.90;;;;;;5094408;28;20451;-49
2022/12/26 02:23:08;;;;;;;7.07;3.85;;;12.00;99.90;;;;;;5093865;28;20110;-46
2022/12/26 02:26:16;;;;;;;5.15;2.72;;;12.00;99.90;;;;;;5094291;28;20028;-48
2022/12/26 02:29:05;;;;;;;3.63;3.28;;;12.00;99.90;;;;;;5093967;28;20040;-46
2022/12/26 02:31:41;;;;;;;5.47;2.92;;;12.00;99.90;;;;;;5094249;28;20024;-51
2022/12/26 02:34:24;;;;;;;4.60;3.15;;;12.00;99.90;;;;;;5093538;28;20026;-43
2022/12/26 02:37:10;;;;;;;4.55;3.53;;;12.00;99.90;;;;;;5094634;28;20377;-46
2022/12/26 02:39:45;;;;;;;3.67;2.92;;;12.00;99.90;;;;;;5094072;28;20020;-49
2022/12/26 02:42:21;;;;;;;4.35;3.10;;;11.90;99.90;;;;;;5093260;28;20024;-45
2022/12/26 02:48:11;;;;;;;3.40;2.83;;;12.10;99.90;;;;;;5094009;28;20089;-46
2022/12/26 03:14:16;;;;;;;3.05;2.75;;;12.30;99.90;;;;;;5093549;28;20027;-45
2022/12/26 03:19:33;;;;;;;4.65;2.97;;;12.30;99.90;;;;;;5093467;28;20518;-48
2022/12/26 03:22:00;;;;;;;4.88;2.83;;;12.30;99.90;;;;;;5092597;28;20030;-46
2022/12/26 03:26:38;;;;;;;6.07;2.92;;;12.40;99.90;;;;;;5074278;28;20031;-49
2022/12/26 03:27:12;;;;;;;5.60;2.50;;;12.30;99.90;;;;;;5092888;28;20153;-45
2022/12/26 03:32:22;;;;;;;4.40;3.40;;;12.20;99.90;;;;;;5092861;28;20404;-43
2022/12/26 03:34:47;;;;;;;5.00;2.95;;;12.30;99.90;;;;;;5093067;28;20024;-46
2022/12/26 03:37:23;;;;;;;5.93;2.72;;;12.30;99.90;;;;;;5074764;28;20024;-48
2022/12/26 04:41:34;;;;;;;7.28;3.00;;;12.00;99.90;;;;;;5092373;28;20522;-45
2022/12/26 04:44:10;;;;;;;5.72;3.58;;;12.00;99.90;;;;;;5091730;28;20423;-42
2022/12/26 04:46:39;;;;;;;2.97;2.55;;;12.10;99.90;;;;;;5091775;28;20399;-46
2022/12/26 04:51:53;;;;;;;6.65;2.33;;;12.20;99.90;;;;;;5091413;28;20478;-40
2022/12/26 04:54:19;;;;;;;6.75;2.35;;;12.30;99.90;;;;;;5091354;28;20024;-44
2022/12/26 04:56:44;;;;;;;5.80;2.72;;;12.40;99.90;;;;;;5091736;28;20027;-46
2022/12/26 04:59:10;;;;;;;2.40;2.20;;;12.50;99.90;;;;;;5091387;28;20499;-45
2022/12/26 05:09:54;;;;;;;5.07;2.92;;;12.50;99.90;;;;;;5091534;28;20027;-44
2022/12/26 05:12:20;;;;;;;2.65;2.25;;;12.50;99.90;;;;;;5091301;28;20415;-44
2022/12/26 05:14:45;;;;;;;3.80;2.20;;;12.60;99.90;;;;;;5091488;28;20020;-44
2022/12/26 05:28:41;;;;;;;3.28;2.20;;;12.60;99.90;;;;;;5091265;28;20039;-45
2022/12/26 05:31:09;;;;;;;7.13;2.40;;;12.60;99.90;;;;;;5091271;28;20046;-49
2022/12/26 05:36:21;;;;;;;11.45;3.03;;;12.60;99.90;;;;;;5091539;28;20031;-46
2022/12/26 05:38:47;;;;;;;8.45;3.38;;;12.50;99.90;;;;;;5091070;28;20055;-47
2022/12/26 05:41:14;;;;;;;3.85;2.28;;;12.50;99.90;;;;;;5091274;28;20047;-48
2022/12/26 05:43:39;;;;;;;6.65;2.63;;;12.50;99.90;;;;;;5090375;28;20024;-45
2022/12/26 05:46:05;;;;;;;3.20;2.55;;;12.50;99.90;;;;;;5091101;28;20415;-48
2022/12/26 05:48:30;;;;;;;5.95;2.72;;;12.50;99.90;;;;;;5093488;28;20123;-44
2022/12/26 05:51:00;;;;;;;4.57;2.65;;;12.50;99.90;;;;;;5095104;28;20039;-44
2022/12/26 05:53:27;;;;;;;9.98;2.85;;;12.60;99.90;;;;;;5094269;28;20023;-47
2022/12/26 05:55:53;;;;;;;7.47;2.40;;;12.50;99.90;;;;;;5094864;28;20035;-45
2022/12/26 05:58:18;;;;;;;5.38;2.50;;;12.50;99.90;;;;;;5095234;28;20475;-46
2022/12/26 06:00:44;;;;;;;6.32;2.50;;;12.50;99.90;;;;;;5095925;28;20036;-45
2022/12/26 06:03:09;;;;;;;4.07;2.40;;;12.50;99.90;;;;;;5094111;28;20369;-48
2022/12/26 06:05:35;;;;;;;3.20;2.50;;;12.60;99.90;;;;;;5074438;28;20024;-47
2022/12/26 06:08:00;;;;;;;3.80;2.67;;;12.60;99.90;;;;;;5094525;28;20402;-41
2022/12/26 06:10:28;;;;;;;5.13;3.65;;;12.60;99.90;;;;;;5094944;28;20531;-44
2022/12/26 06:12:54;;;;;;;5.72;2.33;;;12.60;99.90;;;;;;5094011;28;20016;-42
2022/12/26 06:15:20;;;;;;;4.30;2.65;;;12.60;99.90;;;;;;5094940;28;20027;-45
2022/12/26 06:17:45;;;;;;;5.63;2.50;;;12.60;99.90;;;;;;5076520;28;20024;-42
2022/12/26 06:20:11;;;;;;;7.05;3.67;;;12.70;99.90;;;;;;5094540;28;20036;-48
2022/12/26 06:22:36;;;;;;;6.15;2.22;;;12.70;99.90;;;;;;5075431;28;20078;-45
2022/12/26 06:25:02;;;;;;;7.68;2.83;;;12.70;99.90;;;;;;5094518;28;20024;-44
2022/12/26 06:27:27;;;;;;;2.88;2.15;;;12.80;99.90;;;;;;5094692;28;20034;-43
2022/12/26 06:29:53;;;;;;;2.63;2.35;;;12.80;99.90;;;;;;5094451;28;20028;-40
2022/12/26 06:32:18;;;;;;;2.55;2.10;;;12.80;99.90;;;;;;5093931;28;20488;-45
2022/12/26 06:34:44;;;;;;;4.97;2.10;;;12.80;99.90;;;;;;5094758;28;20032;-43
2022/12/26 06:37:09;;;;;;;2.78;2.58;;;12.80;99.90;;;;;;5094379;28;20101;-42
2022/12/26 06:39:35;;;;;;;3.17;2.33;;;12.90;99.90;;;;;;5094442;28;20047;-44
2022/12/26 06:42:00;;;;;;;3.13;2.10;;;12.90;99.90;;;;;;5093386;28;20040;-45
2022/12/26 06:44:26;;;;;;;5.13;2.33;;;12.90;99.90;;;;;;5094014;28;20024;-45
2022/12/26 06:46:51;;;;;;;7.25;2.72;;;12.80;99.90;;;;;;5093818;28;20174;-44
2022/12/26 06:49:17;;;;;;;2.67;2.47;;;12.80;99.90;;;;;;5093891;28;20064;-42
2022/12/26 06:51:43;;;;;;;2.85;2.58;;;12.80;99.90;;;;;;5094124;28;20510;-44
2022/12/26 06:54:09;;;;;;;5.47;2.42;;;12.80;99.90;;;;;;5093203;28;20020;-43
2022/12/26 06:56:35;;;;;;;3.33;2.65;;;12.80;99.90;;;;;;5093688;28;20038;-46
2022/12/26 06:59:04;;;;;;;3.22;2.30;;;12.80;99.90;;;;;;5092367;28;20036;-46
2022/12/26 07:01:31;;;;;;;4.00;2.60;;;12.70;99.90;;;;;;5093769;28;20046;-44
2022/12/26 07:03:57;;;;;;;4.25;2.08;;;12.70;99.90;;;;;;5092032;28;20034;-43
2022/12/26 07:06:23;;;;;;;3.53;2.70;;;12.70;99.90;;;;;;5093438;28;20036;-47
2022/12/26 07:08:48;;;;;;;5.15;2.53;;;12.70;99.90;;;;;;5093585;28;20067;-46
2022/12/26 07:11:19;;;;;;;2.97;2.60;;;12.70;99.90;;;;;;5093672;28;20062;-45
2022/12/26 07:13:44;;;;;;;7.05;2.60;;;12.70;99.90;;;;;;5092839;28;20387;-44
2022/12/26 07:16:10;;;;;;;3.45;2.70;;;12.80;99.90;;;;;;5093318;28;20032;-43
2022/12/26 07:18:36;;;;;;;4.72;3.08;;;12.80;99.90;;;;;;5093243;28;20020;-44
2022/12/26 07:21:11;;;;;;;4.22;2.72;;;12.80;99.90;;;;;;5093262;28;20027;-46
2022/12/26 07:23:36;;;;;;;3.10;2.50;;;12.70;99.90;;;;;;5074529;28;20066;-42
2022/12/26 07:26:02;;;;;;;4.63;2.60;;;12.70;99.90;;;;;;5093177;28;20040;-45
2022/12/26 07:28:28;;;;;;;4.93;2.53;;;12.70;99.90;;;;;;5093100;28;20429;-48
2022/12/26 07:30:54;;;;;;;6.97;2.50;;;12.70;99.90;;;;;;5092924;28;20035;-45
2022/12/26 07:33:20;;;;;;;6.22;2.38;;;12.60;99.90;;;;;;5092847;28;20028;-41
2022/12/26 07:35:45;;;;;;;5.82;2.83;;;12.60;99.90;;;;;;5094052;28;20024;-44
2022/12/26 07:38:12;;;;;;;4.93;2.60;;;12.60;99.90;;;;;;5094198;28;20020;-43
2022/12/26 07:40:37;;;;;;;3.83;2.63;;;12.60;99.90;;;;;;5094110;28;20073;-44
2022/12/26 07:43:03;;;;;;;3.88;3.10;;;12.60;99.90;;;;;;5093539;28;20028;-43
2022/12/26 07:45:28;;;;;;;4.82;2.75;;;12.70;99.90;;;;;;5094184;28;20031;-43
2022/12/26 07:47:55;;;;;;;3.65;2.50;;;12.60;99.90;;;;;;5093870;28;20119;-41
2022/12/26 07:50:22;;;;;;;4.47;2.42;;;12.60;99.90;;;;;;5093550;28;20111;-43
2022/12/26 07:52:47;;;;;;;6.72;2.75;;;12.60;99.90;;;;;;5093007;28;20028;-43
2022/12/26 07:55:13;;;;;;;3.83;2.28;;;12.50;99.90;;;;;;5093610;28;20020;-44
2022/12/26 07:57:38;;;;;;;8.40;2.45;;;12.50;99.90;;;;;;5093559;28;20514;-42
2022/12/26 08:00:05;;;;;;;4.32;2.97;;;12.50;99.90;;;;;;5092769;28;20036;-44
2022/12/26 08:02:30;;;;;;;3.45;2.75;;;12.50;99.90;;;;;;5092100;28;20036;-44
2022/12/26 08:04:56;;;;;;;4.65;2.28;;;12.40;99.90;;;;;;5091305;28;20055;-44
2022/12/26 08:07:22;;;;;;;4.13;2.70;;;12.30;99.90;;;;;;5074668;28;20028;-42
2022/12/26 08:09:47;;;;;;;4.78;2.60;;;12.30;99.90;;;;;;5093020;28;20054;-44
2022/12/26 08:12:13;;;;;;;9.32;3.13;;;12.20;99.90;;;;;;5092426;28;20435;-43
2022/12/26 08:14:39;;;;;;;4.55;3.10;;;12.20;99.90;;;;;;5093909;28;20031;-44
2022/12/26 08:17:05;;;;;;;3.67;2.65;;;12.10;99.90;;;;;;5093502;28;20039;-44
2022/12/26 08:19:30;;;;;;;5.28;2.80;;;12.10;99.90;;;;;;5075221;28;20410;-45
2022/12/26 08:21:56;;;;;;;4.03;3.00;;;12.10;99.90;;;;;;5092268;28;20024;-41
2022/12/26 08:24:21;;;;;;;4.72;2.95;;;12.00;99.90;;;;;;5092416;28;20078;-44
2022/12/26 08:26:47;;;;;;;4.93;2.65;;;12.00;99.90;;;;;;5092008;28;20118;-43
2022/12/26 08:29:13;;;;;;;5.03;2.75;;;11.90;99.90;;;;;;5092124;28;20426;-45
2022/12/26 08:31:38;;;;;;;4.25;3.22;;;11.90;99.90;;;;;;5092159;28;20051;-43
2022/12/26 08:34:04;;;;;;;3.35;2.63;;;11.90;99.90;;;;;;5091301;28;20387;-43
2022/12/26 08:36:29;;;;;;;2.75;2.40;;;11.90;99.90;;;;;;5092099;28;20024;-43
2022/12/26 08:38:56;;;;;;;8.00;3.15;;;11.90;99.90;;;;;;5073743;28;20369;-43
2022/12/26 08:41:22;;;;;;;4.30;2.72;;;11.90;99.90;;;;;;5091902;28;20230;-44
2022/12/26 08:43:49;;;;;;;5.63;3.80;;;11.90;99.90;;;;;;5091277;28;20107;-43
2022/12/26 08:46:15;;;;;;;4.25;3.10;;;11.90;99.90;;;;;;5092074;28;20024;-45
2022/12/26 08:48:42;;;;;;;4.22;2.80;;;11.90;99.90;;;;;;5091864;28;20028;-44
2022/12/26 08:51:12;;;;;;;5.70;2.85;;;11.90;99.90;;;;;;5092101;28;20089;-46
2022/12/26 08:53:37;;;;;;;3.10;2.80;;;11.90;99.90;;;;;;5091016;28;20031;-46
2022/12/26 08:56:05;;;;;;;3.90;3.00;;;11.90;99.90;;;;;;5091758;28;20027;-43
2022/12/26 08:58:32;;;;;;;4.35;2.58;;;11.90;99.90;;;;;;5091881;28;20042;-46
2022/12/26 09:01:18;;;;;;;2.55;2.33;;;11.90;99.90;;;;;;5092020;28;20452;-43
2022/12/26 09:03:44;;;;;;;3.35;2.55;;;11.90;99.90;;;;;;5091350;28;20107;-44
2022/12/26 09:06:12;;;;;;;3.00;2.30;;;11.90;99.90;;;;;;5071515;28;20042;-45
2022/12/26 09:08:38;;;;;;;3.25;2.15;;;11.90;99.90;;;;;;5091568;28;19908;-44
2022/12/26 09:11:10;;;;;;;2.50;2.30;;;12.00;99.90;;;;;;5091550;28;20024;-45
2022/12/26 09:13:37;;;;;;;3.97;2.65;;;12.00;99.90;;;;;;5090928;28;20026;-43
2022/12/26 09:16:26;;;;;;;3.58;2.70;;;12.00;99.90;;;;;;5092014;28;20383;-47
2022/12/26 09:18:58;;;;;;;2.80;2.05;;;12.00;99.90;;;;;;5091359;28;20070;-44
2022/12/26 09:21:24;;;;;;;3.22;2.30;;;12.00;99.90;;;;;;5091627;28;20031;-47
2022/12/26 09:23:58;;;;;;;4.18;2.78;;;12.00;99.90;;;;;;5093921;28;20020;-46
2022/12/26 09:26:24;;;;;;;3.08;2.05;;;12.00;99.90;;;;;;5095988;28;20095;-47
2022/12/26 09:28:50;;;;;;;2.15;1.95;;;12.00;99.90;;;;;;5095632;28;20114;-42
2022/12/26 09:31:18;;;;;;;3.60;2.13;;;12.00;99.90;;;;;;5095555;28;20020;-44
2022/12/26 09:33:46;;;;;;;2.92;2.03;;;12.00;99.90;;;;;;5094895;28;20020;-46
2022/12/26 09:36:15;;;;;;;3.85;2.45;;;12.00;99.90;;;;;;5095488;28;20480;-44
2022/12/26 09:38:41;;;;;;;2.42;1.85;;;12.00;99.90;;;;;;5095238;28;20036;-42
2022/12/26 09:41:33;;;;;;;3.40;2.97;;;12.00;99.90;;;;;;5095560;28;20024;-47
2022/12/26 09:44:20;;;;;;;4.20;2.25;;;12.00;99.90;;;;;;5094690;28;20047;-44
2022/12/26 09:47:10;;;;;;;3.03;1.95;;;12.00;99.90;;;;;;5095468;28;20028;-54
2022/12/26 09:50:03;;;;;;;2.65;2.00;;;12.00;99.90;;;;;;5102869;28;20081;-44
2022/12/26 09:52:50;;;;;;;2.20;1.98;;;12.00;99.90;;;;;;5081248;28;20052;-46
2022/12/26 09:55:38;;;;;;;2.10;1.95;;;12.10;99.90;;;;;;5080351;28;20029;-47
2022/12/26 09:58:27;;;;;;;1.83;1.67;;;12.10;99.90;;;;;;5074307;28;20174;-48
2022/12/26 10:01:04;;;;;;;2.22;2.00;;;12.10;99.90;;;;;;5094631;28;20042;-47
2022/12/26 10:03:38;;;;;;;3.85;1.63;;;12.10;99.90;;;;;;5092570;28;20111;-47
2022/12/26 10:06:18;;;;;;;2.00;1.80;;;12.10;99.90;;;;;;5094734;28;20024;-44
2022/12/26 10:09:12;;;;;;;2.15;1.95;;;12.10;99.90;;;;;;5094749;28;20059;-45
2022/12/26 10:11:59;;;;;;;3.38;1.90;;;12.20;99.90;;;;;;5076747;28;20027;-43
2022/12/26 10:15:00;;;;;;;2.10;1.88;;;12.10;99.90;;;;;;5093812;28;20376;-45
2022/12/26 10:17:45;;;;;;;1.75;1.52;;;12.20;99.90;;;;;;5087966;28;20033;-47
2022/12/26 10:20:52;;;;;;;3.40;1.90;;;12.20;99.90;;;;;;5094390;28;20036;-46
2022/12/26 10:23:44;;;;;;;2.05;1.75;;;12.30;99.90;;;;;;5091258;28;20032;-46
2022/12/26 10:26:30;;;;;;;5.60;1.88;;;12.30;99.90;;;;;;5074213;28;20016;-46
2022/12/26 10:29:17;;;;;;;2.35;1.92;;;12.30;99.90;;;;;;5085852;28;20044;-46
2022/12/26 10:31:48;;;;;;;3.28;1.40;;;12.40;99.90;;;;;;5074159;28;20033;-45
2022/12/26 10:34:29;;;;;;;1.90;1.73;;;12.40;99.90;;;;;;5073938;28;20047;-47
2022/12/26 10:37:08;;;;;;;1.63;1.50;;;12.40;99.90;;;;;;5086025;28;20428;-45
2022/12/26 10:39:48;;;;;;;2.97;1.95;;;12.40;99.90;;;;;;5084973;28;20012;-44
2022/12/26 10:42:26;;;;;;;1.30;1.30;;;12.30;99.90;;;;;;5073889;28;20016;-42
2022/12/26 10:44:51;;;;;;;3.20;1.75;;;12.30;99.90;;;;;;5084878;28;20040;-43
2022/12/26 10:47:32;;;;;;;2.50;1.55;;;12.30;99.90;;;;;;5084794;28;20021;-46
2022/12/26 10:50:00;;;;;;;4.28;2.15;;;12.20;99.90;;;;;;5092402;28;20016;-44
2022/12/26 10:52:37;;;;;;;2.72;1.92;;;12.20;99.90;;;;;;5091852;28;20017;-45
2022/12/26 10:55:03;;;;;;;1.70;1.60;;;12.10;99.90;;;;;;5091166;28;20396;-42
2022/12/26 10:57:33;;;;;;;1.60;1.50;;;12.10;99.90;;;;;;5083535;28;20029;-45
2022/12/26 10:59:59;;;;;;;1.70;1.60;;;12.10;99.90;;;;;;5075287;28;20425;-44
2022/12/26 11:02:31;;;;;;;40.03;27.17;;;12.10;99.90;;;;;;5082322;28;20032;-42
2022/12/26 11:05:02;;;;;;;2.83;2.42;;;12.00;99.90;;;;;;5073507;28;20123;-43
2022/12/26 11:07:31;;;;;;;3.10;2.15;;;11.90;99.90;;;;;;5093441;28;20028;-43
2022/12/26 11:09:57;;;;;;;3.33;2.00;;;11.80;99.90;;;;;;5092345;28;20024;-46
2022/12/26 11:12:36;;;;;;;2.90;1.73;;;11.80;99.90;;;;;;5091641;28;20049;-50
2022/12/26 11:15:06;;;;;;;1.70;1.60;;;11.70;99.90;;;;;;5086375;28;20017;-44
2022/12/26 11:17:42;;;;;;;1.73;1.58;;;11.70;99.90;;;;;;5084382;28;20092;-46
2022/12/26 11:20:13;;;;;;;7.47;4.65;;;11.70;99.90;;;;;;5072741;28;20039;-45
2022/12/26 11:22:39;;;;;;;1.98;1.88;;;11.70;99.90;;;;;;5084608;28;20403;-44
2022/12/26 11:25:22;;;;;;;5.18;1.90;;;11.80;99.90;;;;;;5092117;28;20024;-44
2022/12/26 11:27:54;;;;;;;2.97;1.70;;;11.90;99.90;;;;;;5090001;28;20484;-45
2022/12/26 11:30:31;;;;;;;3.30;1.90;;;12.00;99.90;;;;;;5084074;28;20081;-50
2022/12/26 11:33:16;;;;;;;4.15;2.40;;;12.10;99.90;;;;;;5092716;28;20111;-47
2022/12/26 11:36:14;;;;;;;3.55;2.08;;;12.10;99.90;;;;;;5073068;28;20028;-44
2022/12/26 11:38:53;;;;;;;3.42;1.60;;;12.10;99.90;;;;;;5072063;28;20438;-42
2022/12/26 11:41:31;;;;;;;1.52;1.42;;;12.10;99.90;;;;;;5074532;28;20396;-42
2022/12/26 11:44:14;;;;;;;4.28;2.92;;;12.10;99.90;;;;;;5075934;28;20376;-48
2022/12/26 11:46:48;;;;;;;2.55;1.73;;;12.10;99.90;;;;;;5092935;28;20039;-42
2022/12/26 11:49:21;;;;;;;2.25;1.80;;;12.10;99.90;;;;;;5093346;28;20491;-46
2022/12/26 11:51:48;;;;;;;6.85;2.85;;;12.00;99.90;;;;;;5092967;28;20641;-45
2022/12/26 11:54:27;;;;;;;1.90;1.80;;;12.10;99.90;;;;;;5075838;28;20033;-45
2022/12/26 11:57:17;;;;;;;4.97;2.03;;;12.00;99.90;;;;;;5092877;28;20059;-47
2022/12/26 11:59:43;;;;;;;1.83;1.73;;;12.00;99.90;;;;;;5099648;22;20029;-54
2022/12/26 12:02:17;;;;;;;4.38;1.77;;;12.00;99.90;;;;;;5051234;28;20057;-50
2022/12/26 12:04:44;;;;;;;4.10;1.92;;;12.10;99.90;;;;;;5052445;28;20100;-49
2022/12/26 12:07:34;;;;;;;2.38;1.40;;;12.10;99.90;;;;;;5033796;28;20056;-53
2022/12/26 12:10:16;;;;;;;4.10;2.03;;;12.10;99.90;;;;;;5052227;28;20029;-49
2022/12/26 12:13:00;;;;;;;2.28;1.70;;;12.20;99.90;;;;;;4994378;28;20108;-51
2022/12/26 12:15:35;;;;;;;2.67;1.85;;;12.20;99.90;;;;;;5012803;28;20029;-51
2022/12/26 12:18:18;;;;;;;1.95;1.40;;;12.20;99.90;;;;;;5012541;28;20029;-52
2022/12/26 12:21:16;;;;;;;2.25;1.52;;;12.20;99.90;;;;;;5012319;28;20030;-52
2022/12/26 12:24:15;;;;;;;1.75;1.52;;;12.30;99.90;;;;;;4994150;28;20022;-51
2022/12/26 12:26:59;;;;;;;3.00;1.80;;;12.30;99.90;;;;;;5012562;28;20030;-51
2022/12/26 12:29:54;;;;;;;2.63;1.58;;;12.30;99.90;;;;;;5012611;28;20026;-52
2022/12/26 12:32:34;;;;;;;1.20;1.10;;;12.40;99.90;;;;;;5030294;28;20021;-50
2022/12/26 12:35:25;;;;;;;2.22;2.03;;;12.40;99.90;;;;;;5036169;28;20033;-48
2022/12/26 12:38:23;;;;;;;1.30;1.20;;;12.40;99.90;;;;;;5036098;28;20033;-54
2022/12/26 12:40:58;;;;;;;2.25;1.17;;;12.40;99.90;;;;;;5035340;28;20512;-49
2022/12/26 12:43:34;;;;;;;2.00;1.40;;;12.50;99.90;;;;;;5035437;28;20029;-55
2022/12/26 12:46:12;;;;;;;1.67;1.23;;;12.50;99.90;;;;;;5034736;28;20040;-49
2022/12/26 12:48:49;;;;;;;1.25;1.20;;;12.50;99.90;;;;;;5020977;28;20065;-50
2022/12/26 12:51:39;;;;;;;2.05;1.10;;;12.60;99.90;;;;;;5029228;28;20035;-51
2022/12/26 12:54:25;;;;;;;1.20;1.08;;;12.60;99.90;;;;;;5031326;28;20021;-54
2022/12/26 12:57:00;;;;;;;1.73;1.10;;;12.60;99.90;;;;;;5015475;28;20134;-49
2022/12/26 12:59:39;;;;;;;1.75;1.00;;;12.60;99.90;;;;;;5031870;28;20111;-51
2022/12/26 13:02:15;;;;;;;2.97;1.23;;;12.60;99.90;;;;;;5043658;28;20052;-51
2022/12/26 13:04:48;;;;;;;1.52;1.30;;;12.70;99.90;;;;;;5052098;28;20026;-48
2022/12/26 13:07:19;;;;;;;2.28;1.05;;;12.60;99.90;;;;;;5044008;28;20051;-50
2022/12/26 13:09:50;;;;;;;1.48;1.05;;;12.60;99.90;;;;;;5043489;28;20096;-52
2022/12/26 13:12:21;;;;;;;1.58;1.40;;;12.60;99.90;;;;;;5033017;28;20116;-51
2022/12/26 13:14:56;;;;;;;2.35;1.30;;;12.60;99.90;;;;;;5032118;28;20036;-57
2022/12/26 13:17:49;;;;;;;3.63;1.20;;;12.50;99.90;;;;;;5017240;28;20037;-50
2022/12/26 13:20:20;;;;;;;3.63;1.10;;;12.50;99.90;;;;;;5035448;28;20029;-57
2022/12/26 13:25:45;;;;;;;3.28;1.50;;;12.60;99.90;;;;;;5032633;28;20539;-49
2022/12/26 13:28:17;;;;;;;1.55;1.10;;;12.60;99.90;;;;;;4997490;28;20041;-53
2022/12/26 13:30:43;;;;;;;1.98;1.35;;;12.50;99.90;;;;;;5011742;28;20033;-48
2022/12/26 13:33:13;;;;;;;3.55;1.20;;;12.60;99.90;;;;;;5012846;28;20030;-48
2022/12/26 13:36:00;;;;;;;4.32;2.35;;;12.50;99.90;;;;;;5012346;28;20022;-58
2022/12/26 13:38:57;;;;;;;5.22;2.22;;;12.50;99.90;;;;;;5014825;28;20392;-52
2022/12/26 13:44:18;;;;;;;2.80;1.23;;;12.50;99.90;;;;;;5061414;28;20032;-54
2022/12/26 13:46:46;;;;;;;1.63;1.30;;;12.50;99.90;;;;;;5059456;28;20036;-54
2022/12/26 13:49:34;;;;;;;2.20;1.40;;;12.50;99.90;;;;;;5042691;28;20025;-56
2022/12/26 13:52:09;;;;;;;1.17;1.08;;;12.50;99.90;;;;;;5045254;28;20057;-50
2022/12/26 13:54:35;;;;;;;1.88;1.77;;;12.30;99.90;;;;;;5008374;28;20433;-54
2022/12/26 13:57:14;;;;;;;4.53;1.83;;;12.30;99.90;;;;;;5040523;28;20087;-53
2022/12/26 14:00:00;;;;;;;3.58;1.42;;;12.30;99.90;;;;;;5037264;28;20029;-55
2022/12/26 14:03:00;;;;;;;3.13;1.83;;;12.30;99.90;;;;;;5040813;28;20021;-52
2022/12/26 14:05:35;;;;;;;5.57;3.03;;;12.30;99.90;;;;;;5028832;28;20026;-51
2022/12/26 14:08:46;;;;;;;2.42;1.60;;;12.30;99.90;;;;;;5039246;28;20033;-55
2022/12/26 14:11:32;;;;;;;1.50;1.13;;;12.30;99.90;;;;;;4960904;29;20028;-51
2022/12/26 14:14:10;;;;;;;1.65;1.30;;;12.30;99.90;;;;;;4942906;29;20090;-52
2022/12/26 14:16:36;;;;;;;3.40;1.55;;;12.30;99.90;;;;;;5015562;28;20045;-50
2022/12/26 14:19:10;;;;;;;1.60;1.30;;;12.30;99.90;;;;;;5027576;28;20105;-52
2022/12/26 14:21:58;;;;;;;1.33;1.00;;;12.40;99.90;;;;;;5027085;28;20037;-51
2022/12/26 14:24:37;;;;;;;2.35;1.30;;;12.40;99.90;;;;;;5055981;28;20193;-50
2022/12/26 14:27:25;;;;;;;0.98;0.98;;;12.40;99.90;;;;;;5044970;28;20034;-53
2022/12/26 14:30:29;;;;;;;3.75;1.23;;;12.40;99.90;;;;;;5048264;28;20071;-49
2022/12/26 14:33:24;;;;;;;2.35;0.85;;;12.40;99.90;;;;;;4974898;28;20023;-49
2022/12/26 14:36:03;;;;;;;2.88;1.08;;;12.40;99.90;;;;;;5038700;28;20021;-49
2022/12/26 14:38:53;;;;;;;3.85;1.20;;;12.40;99.90;;;;;;5021449;28;20021;-47
2022/12/26 14:44:20;;;;;;;1.45;1.00;;;12.50;99.90;;;;;;5044148;28;20118;-48
2022/12/26 14:46:49;;;;;;;1.92;1.55;;;12.50;99.90;;;;;;5044951;28;20025;-50
2022/12/26 14:49:23;;;;;;;4.45;3.10;;;12.40;99.90;;;;;;5042197;28;20028;-53
2022/12/26 14:51:49;;;;;;;46.15;27.33;;;12.50;99.90;;;;;;5025749;28;20028;-54
2022/12/26 14:54:21;;;;;;;2.90;2.47;;;12.50;99.90;;;;;;5038802;28;20025;-52
2022/12/26 14:56:48;;;;;;;2.80;1.42;;;12.40;99.90;;;;;;5041956;28;20026;-54
2022/12/26 14:59:25;;;;;;;2.63;1.83;;;12.40;99.90;;;;;;5037642;28;20026;-51
2022/12/26 15:01:59;;;;;;;3.97;1.30;;;12.30;99.90;;;;;;5043835;28;20041;-53
2022/12/26 15:04:51;;;;;;;2.10;1.42;;;12.30;99.90;;;;;;5044695;28;20037;-52
2022/12/26 15:07:26;;;;;;;3.13;1.20;;;12.30;99.90;;;;;;5042944;28;20030;-54
2022/12/26 15:10:30;;;;;;;5.03;1.10;;;12.30;99.90;;;;;;5043180;28;20025;-51
2022/12/26 15:13:30;;;;;;;1.55;1.42;;;12.30;99.90;;;;;;5024379;28;20026;-49
2022/12/26 15:16:08;;;;;;;2.47;1.02;;;12.30;99.90;;;;;;5031563;28;20124;-52
2022/12/26 15:19:11;;;;;;;1.48;1.20;;;12.30;99.90;;;;;;5030192;28;20026;-51
2022/12/26 15:22:12;;;;;;;3.20;0.90;;;12.20;99.90;;;;;;5047974;28;20535;-54
2022/12/26 15:24:56;;;;;;;8.02;1.80;;;12.30;99.90;;;;;;4970518;28;20035;-50
2022/12/26 15:27:40;;;;;;;11.43;3.90;;;12.20;99.90;;;;;;5043947;28;20104;-52